Time;durP1;ratioP1;P1;durP2;ratioP2;P2;SDS_P1;SDS_P2;PMS_P1;PMS_P2;Temp;Humidity;BMP_temperature;BMP_pressure;BME280_temperature;BME280_humidity;BME280_pressure;Samples;Min_cycle;Max_cycle;Signal;HPM_P1;HPM_P2
2022/06/11 00:00:18;;;;;;;;;15.67;14.33;;;;;22.15;52.21;101438.02;109551;1269;18893;-45
2022/06/11 00:03:01;;;;;;;;;14.67;14.67;;;;;22.12;52.21;101435.92;109568;1269;19036;-47
2022/06/11 00:05:28;;;;;;;;;22.00;18.67;;;;;22.09;52.38;101436.36;109598;1269;21264;-48
2022/06/11 00:07:57;;;;;;;;;19.67;18.33;;;;;22.07;52.32;101437.30;109585;1269;18966;-47
2022/06/11 00:10:24;;;;;;;;;18.50;18.00;;;;;22.07;52.51;101438.77;109598;1270;19043;-47
2022/06/11 00:12:51;;;;;;;;;19.50;18.00;;;;;22.05;52.55;101436.30;109566;1269;19513;-48
2022/06/11 00:15:19;;;;;;;;;18.50;18.50;;;;;22.04;52.63;101437.35;109563;1269;22821;-48
2022/06/11 00:17:46;;;;;;;;;21.00;18.00;;;;;22.02;52.78;101439.52;109552;1269;18826;-47
2022/06/11 00:20:13;;;;;;;;;20.50;18.00;;;;;22.02;52.66;101434.86;109604;1269;19548;-47
2022/06/11 00:22:41;;;;;;;;;18.67;17.67;;;;;22.00;52.73;101433.52;109437;1269;18981;-47
2022/06/11 00:25:08;;;;;;;;;18.00;17.00;;;;;21.99;52.72;101426.59;109494;1269;23381;-48
2022/06/11 00:27:35;;;;;;;;;17.00;17.00;;;;;22.00;52.63;101425.23;109540;1269;19507;-47
2022/06/11 00:30:02;;;;;;;;;18.00;18.00;;;;;21.97;52.68;101427.52;109541;1269;18768;-47
2022/06/11 00:32:30;;;;;;;;;17.00;15.33;;;;;21.95;52.65;101425.64;109609;1268;18826;-47
2022/06/11 00:35:00;;;;;;;;;18.00;17.67;;;;;21.94;52.71;101429.73;109849;1265;19565;-47
2022/06/11 00:37:27;;;;;;;;;15.67;15.67;;;;;21.91;52.71;101426.52;110347;1264;19057;-48
2022/06/11 00:39:55;;;;;;;;;15.00;15.00;;;;;21.89;52.75;101430.08;110292;1264;20352;-47
2022/06/11 00:42:22;;;;;;;;;17.33;15.00;;;;;21.88;52.77;101428.91;110318;1264;19473;-47
2022/06/11 00:44:49;;;;;;;;;17.00;17.00;;;;;21.88;52.79;101429.86;110309;1264;18827;-50
2022/06/11 00:47:16;;;;;;;;;18.67;17.00;;;;;21.89;52.77;101431.95;110256;1264;18901;-46
2022/06/11 00:49:44;;;;;;;;;15.50;15.00;;;;;21.86;52.67;101432.06;110308;1264;21899;-46
2022/06/11 00:52:11;;;;;;;;;17.00;15.33;;;;;21.85;52.87;101437.22;110223;1265;18688;-47
2022/06/11 00:54:39;;;;;;;;;18.00;17.67;;;;;21.82;52.87;101435.52;110129;1264;21565;-49
2022/06/11 00:57:06;;;;;;;;;14.33;14.00;;;;;21.82;52.99;101435.23;110241;1263;19649;-48
2022/06/11 00:59:33;;;;;;;;;17.00;15.00;;;;;21.83;52.87;101435.48;110310;1264;22907;-47
2022/06/11 01:02:01;;;;;;;;;15.00;14.00;;;;;21.84;52.74;101440.02;110296;1264;19161;-49
2022/06/11 01:04:28;;;;;;;;;17.33;15.67;;;;;21.83;52.73;101439.11;110325;1265;19604;-46
2022/06/11 01:06:56;;;;;;;;;19.00;17.67;;;;;21.82;52.82;101439.39;110276;1264;20118;-48
2022/06/11 01:09:23;;;;;;;;;15.00;13.33;;;;;21.83;52.76;101433.29;110288;1265;18952;-47
2022/06/11 01:11:50;;;;;;;;;15.00;15.00;;;;;21.85;52.74;101437.18;110272;1264;19612;-48
2022/06/11 01:14:18;;;;;;;;;14.33;14.00;;;;;21.85;52.80;101438.31;110277;1264;20177;-47
2022/06/11 01:16:45;;;;;;;;;14.50;14.00;;;;;21.85;52.67;101440.87;110255;1265;19001;-49
2022/06/11 01:19:12;;;;;;;;;15.00;14.00;;;;;21.82;52.48;101438.50;110287;1265;21705;-47
2022/06/11 01:21:39;;;;;;;;;17.00;15.00;;;;;21.80;52.54;101441.48;110288;1263;18754;-48
2022/06/11 01:24:07;;;;;;;;;14.33;13.67;;;;;21.83;52.52;101444.21;110269;1264;18839;-47
2022/06/11 01:26:34;;;;;;;;;14.00;13.00;;;;;21.82;52.45;101446.32;110273;1265;21872;-48
2022/06/11 01:29:01;;;;;;;;;17.67;16.33;;;;;21.79;52.45;101449.10;110291;1265;19195;-47
2022/06/11 01:31:28;;;;;;;;;14.00;14.00;;;;;21.79;52.55;101447.20;110336;1264;18787;-48
2022/06/11 01:33:56;;;;;;;;;15.00;15.00;;;;;21.78;52.55;101450.78;110291;1265;20052;-47
2022/06/11 01:36:23;;;;;;;;;16.00;15.00;;;;;21.76;52.43;101453.67;110223;1264;18766;-48
2022/06/11 01:38:50;;;;;;;;;15.00;15.00;;;;;21.73;52.62;101454.52;110231;1264;18773;-47
2022/06/11 01:41:18;;;;;;;;;17.50;17.00;;;;;21.75;52.57;101458.88;110300;1264;19852;-47
2022/06/11 01:43:45;;;;;;;;;15.33;14.00;;;;;21.76;52.42;101457.16;110151;1265;19976;-47
2022/06/11 01:46:12;;;;;;;;;16.67;16.00;;;;;21.75;52.45;101456.22;110327;1264;18877;-48
2022/06/11 01:48:40;;;;;;;;;19.00;17.00;;;;;21.72;52.43;101455.03;110306;1264;19785;-50
2022/06/11 01:51:07;;;;;;;;;18.00;17.00;;;;;21.71;52.52;101456.55;110264;1264;18759;-47
2022/06/11 01:53:34;;;;;;;;;21.00;19.00;;;;;21.73;52.47;101462.36;110230;1265;19025;-48
2022/06/11 01:56:02;;;;;;;;;18.00;17.50;;;;;21.74;52.34;101461.04;110303;1264;19777;-47
2022/06/11 01:58:29;;;;;;;;;17.33;17.33;;;;;21.72;52.29;101459.02;110334;1264;18830;-47
2022/06/11 02:00:56;;;;;;;;;20.50;20.00;;;;;21.72;52.33;101457.42;110309;1264;22695;-47
2022/06/11 02:03:23;;;;;;;;;17.00;17.00;;;;;21.71;52.35;101457.55;110287;1264;19689;-47
2022/06/11 02:05:51;;;;;;;;;20.50;18.00;;;;;21.73;52.36;101456.19;110306;1265;18791;-48
2022/06/11 02:08:18;;;;;;;;;18.00;18.00;;;;;21.75;52.22;101458.74;110218;1264;22431;-47
2022/06/11 02:10:46;;;;;;;;;21.50;20.00;;;;;21.75;52.21;101460.31;110272;1264;19493;-48
2022/06/11 02:13:14;;;;;;;;;18.00;17.50;;;;;21.70;52.13;101457.80;110164;1264;24831;-47
2022/06/11 02:15:41;;;;;;;;;20.67;18.00;;;;;21.65;52.37;101462.17;110176;1265;18900;-47
2022/06/11 02:18:09;;;;;;;;;18.00;18.00;;;;;21.66;52.33;101459.59;110272;1264;19601;-47
2022/06/11 02:20:36;;;;;;;;;18.00;18.00;;;;;21.66;52.39;101462.44;110265;1264;19015;-49
2022/06/11 02:23:03;;;;;;;;;22.00;20.67;;;;;21.68;52.27;101459.51;110288;1264;18685;-47
2022/06/11 02:25:30;;;;;;;;;19.67;19.00;;;;;21.66;52.16;101465.35;110321;1265;19623;-46
2022/06/11 02:27:58;;;;;;;;;21.00;19.50;;;;;21.63;52.27;101463.98;110301;1264;18722;-47
2022/06/11 02:30:25;;;;;;;;;17.00;17.00;;;;;21.60;52.30;101466.90;110296;1264;18926;-47
2022/06/11 02:32:52;;;;;;;;;20.00;18.00;;;;;21.58;52.28;101469.47;110283;1264;20897;-47
2022/06/11 02:35:19;;;;;;;;;20.67;18.00;;;;;21.59;52.38;101472.99;110307;1265;18818;-48
2022/06/11 02:37:48;;;;;;;;;18.00;17.00;;;;;21.60;52.22;101471.20;110315;1264;18775;-46
2022/06/11 02:40:15;;;;;;;;;21.00;18.00;;;;;21.59;52.03;101474.27;110306;1265;20366;-46
2022/06/11 02:42:42;;;;;;;;;16.67;16.67;;;;;21.60;51.97;101471.25;110294;1265;18776;-48
2022/06/11 02:45:10;;;;;;;;;15.00;14.00;;;;;21.59;51.99;101479.18;110230;1264;19139;-47
2022/06/11 02:47:38;;;;;;;;;21.00;18.00;;;;;21.60;52.06;101475.96;110266;1264;19453;-48
2022/06/11 02:50:05;;;;;;;;;19.33;16.67;;;;;21.61;52.00;101479.68;110259;1264;22805;-47
2022/06/11 02:52:33;;;;;;;;;21.00;18.00;;;;;21.62;51.81;101482.34;110313;1264;18842;-49
2022/06/11 02:55:00;;;;;;;;;20.00;18.00;;;;;21.61;51.93;101488.81;110305;1264;19451;-48
2022/06/11 02:57:29;;;;;;;;;20.00;18.00;;;;;21.60;51.83;101488.89;110300;1264;20125;-48
2022/06/11 02:59:56;;;;;;;;;17.67;17.00;;;;;21.57;51.91;101486.27;110273;1264;22235;-47
2022/06/11 03:02:24;;;;;;;;;20.00;18.00;;;;;21.53;51.78;101483.46;110284;1264;19591;-48
2022/06/11 03:04:51;;;;;;;;;20.33;18.00;;;;;21.52;51.95;101486.50;110292;1264;20886;-47
2022/06/11 03:07:18;;;;;;;;;17.33;17.00;;;;;21.52;51.85;101487.76;110308;1264;19276;-48
2022/06/11 03:09:45;;;;;;;;;18.00;18.00;;;;;21.52;51.84;101489.51;110290;1264;19487;-48
2022/06/11 03:12:13;;;;;;;;;20.67;19.33;;;;;21.59;51.81;101487.17;110240;1264;18782;-49
2022/06/11 03:14:41;;;;;;;;;18.67;17.33;;;;;21.60;51.69;101488.85;110293;1264;18845;-47
2022/06/11 03:17:08;;;;;;;;;19.67;16.67;;;;;21.63;51.72;101492.27;110203;1264;19610;-48
2022/06/11 03:19:36;;;;;;;;;18.00;17.00;;;;;21.67;51.46;101493.27;110333;1264;18905;-48
2022/06/11 03:22:03;;;;;;;;;20.33;16.67;;;;;21.66;51.59;101490.09;110258;1264;18846;-47
2022/06/11 03:24:30;;;;;;;;;20.00;18.00;;;;;21.64;51.54;101493.71;110263;1265;22245;-47
2022/06/11 03:26:57;;;;;;;;;17.00;16.33;;;;;21.65;51.77;101497.16;110277;1263;18872;-47
2022/06/11 03:29:25;;;;;;;;;16.33;15.33;;;;;21.63;51.66;101502.60;110284;1265;18864;-47
2022/06/11 03:31:52;;;;;;;;;17.67;17.67;;;;;21.57;51.79;101499.92;110266;1265;19548;-46
2022/06/11 03:34:20;;;;;;;;;14.00;13.67;;;;;21.53;51.81;101503.24;110316;1264;18811;-48
2022/06/11 03:36:47;;;;;;;;;19.33;17.00;;;;;21.48;51.94;101505.41;110313;1264;23076;-48
2022/06/11 03:39:16;;;;;;;;;17.00;14.00;;;;;21.48;52.03;101505.10;110288;1265;20937;-46
2022/06/11 03:41:43;;;;;;;;;18.00;17.00;;;;;21.50;52.12;101506.33;110283;1265;18759;-47
2022/06/11 03:44:10;;;;;;;;;19.00;17.00;;;;;21.52;51.97;101508.60;110289;1264;20413;-47
2022/06/11 03:46:38;;;;;;;;;14.00;14.00;;;;;21.56;51.65;101508.71;110328;1264;19801;-47
2022/06/11 03:49:05;;;;;;;;;17.00;16.33;;;;;21.59;51.56;101510.63;110267;1264;22759;-47
2022/06/11 03:51:32;;;;;;;;;20.00;17.50;;;;;21.67;51.44;101510.73;110284;1264;19092;-47
2022/06/11 03:53:59;;;;;;;;;18.00;16.67;;;;;21.68;51.35;101509.55;110293;1264;22632;-47
2022/06/11 03:56:27;;;;;;;;;16.00;16.00;;;;;21.71;51.53;101512.96;110276;1264;21922;-47
2022/06/11 03:58:54;;;;;;;;;16.00;16.00;;;;;21.79;51.18;101515.73;110281;1264;20647;-48
2022/06/11 04:01:23;;;;;;;;;16.33;15.33;;;;;21.84;51.08;101509.23;110295;1264;19433;-47
2022/06/11 04:03:51;;;;;;;;;16.00;16.00;;;;;21.84;50.83;101516.70;110253;1264;20455;-47
2022/06/11 04:06:19;;;;;;;;;20.00;17.50;;;;;21.81;51.01;101515.66;110289;1264;18898;-47
2022/06/11 04:08:46;;;;;;;;;21.00;16.00;;;;;21.87;50.88;101518.18;110313;1264;19455;-48
2022/06/11 04:11:14;;;;;;;;;18.00;17.00;;;;;21.93;50.78;101514.82;110285;1264;18666;-48
2022/06/11 04:13:41;;;;;;;;;16.50;16.50;;;;;21.89;50.82;101515.55;110304;1263;21992;-48
2022/06/11 04:16:08;;;;;;;;;17.00;17.00;;;;;21.86;51.05;101513.02;110188;1265;19458;-46
2022/06/11 04:18:35;;;;;;;;;17.00;16.33;;;;;21.90;50.75;101515.11;110283;1264;18694;-47
2022/06/11 04:21:03;;;;;;;;;16.67;16.67;;;;;21.96;50.74;101514.25;110285;1264;19066;-47
2022/06/11 04:23:30;;;;;;;;;20.00;18.00;;;;;21.97;50.74;101513.33;110306;1264;20736;-47
2022/06/11 04:25:57;;;;;;;;;17.33;17.33;;;;;21.91;50.72;101513.87;110307;1264;22817;-46
2022/06/11 04:28:25;;;;;;;;;14.00;14.00;;;;;21.90;50.95;101512.05;110335;1265;18788;-48
2022/06/11 04:30:52;;;;;;;;;15.33;14.67;;;;;21.97;50.71;101510.67;110288;1265;21373;-47
2022/06/11 04:33:20;;;;;;;;;17.00;16.00;;;;;21.94;50.60;101518.48;110297;1264;18817;-46
2022/06/11 04:35:47;;;;;;;;;12.33;12.33;;;;;21.89;50.90;101520.71;110304;1264;22258;-48
2022/06/11 04:38:14;;;;;;;;;16.67;16.00;;;;;21.85;51.08;101518.59;110317;1264;21213;-46
2022/06/11 04:40:41;;;;;;;;;15.00;15.00;;;;;21.91;51.05;101516.29;110327;1264;19358;-48
2022/06/11 04:43:09;;;;;;;;;16.67;16.00;;;;;21.96;50.79;101517.95;110251;1264;18815;-48
2022/06/11 04:45:36;;;;;;;;;18.00;17.33;;;;;21.92;50.75;101520.04;110165;1265;19493;-49
2022/06/11 04:48:03;;;;;;;;;16.33;16.00;;;;;21.93;50.86;101518.27;110266;1265;18858;-47
2022/06/11 04:50:30;;;;;;;;;14.00;13.33;;;;;21.99;50.71;101519.17;110282;1264;18766;-47
2022/06/11 04:52:58;;;;;;;;;18.00;16.00;;;;;21.97;50.62;101522.14;110270;1264;19670;-48
2022/06/11 04:55:25;;;;;;;;;18.00;16.00;;;;;21.99;50.66;101527.02;110289;1264;18762;-47
2022/06/11 04:57:52;;;;;;;;;16.00;14.33;;;;;22.04;50.51;101528.67;110261;1264;18942;-47
2022/06/11 05:00:20;;;;;;;;;13.67;13.67;;;;;22.07;50.45;101526.57;110118;1264;19606;-47
2022/06/11 05:02:47;;;;;;;;;13.67;13.67;;;;;21.99;50.57;101525.55;110266;1264;18797;-47
2022/06/11 05:05:14;;;;;;;;;21.33;15.67;;;;;21.99;50.52;101522.85;110290;1264;22114;-48
2022/06/11 05:07:42;;;;;;;;;15.67;15.00;;;;;22.00;50.36;101525.29;110306;1264;19488;-47
2022/06/11 05:10:09;;;;;;;;;15.00;14.00;;;;;21.97;50.50;101526.36;110276;1264;18685;-48
2022/06/11 05:12:36;;;;;;;;;18.33;17.00;;;;;22.00;50.26;101523.51;110274;1264;19155;-46
2022/06/11 05:15:03;;;;;;;;;16.00;15.00;;;;;21.99;50.31;101523.02;110268;1264;19450;-47
2022/06/11 05:17:31;;;;;;;;;19.67;18.67;;;;;22.01;50.40;101520.98;110293;1264;20454;-47
2022/06/11 05:19:58;;;;;;;;;21.00;20.00;;;;;22.01;50.40;101523.96;110250;1265;20204;-46
2022/06/11 05:22:26;;;;;;;;;33.00;30.00;;;;;21.98;50.36;101529.12;110293;1264;19602;-47
2022/06/11 05:24:53;;;;;;;;;34.00;30.00;;;;;22.00;50.30;101534.25;110275;1265;18808;-46
2022/06/11 05:27:20;;;;;;;;;33.67;30.67;;;;;22.00;50.21;101532.23;110291;1264;18840;-48
2022/06/11 05:29:49;;;;;;;;;30.33;29.67;;;;;22.05;50.27;101536.19;110246;1264;19632;-47
2022/06/11 05:32:16;;;;;;;;;33.00;31.00;;;;;22.08;50.12;101531.16;110113;1264;18507;-48
2022/06/11 05:34:44;;;;;;;;;30.00;30.00;;;;;22.11;50.00;101531.38;110235;1264;19929;-48
2022/06/11 05:37:11;;;;;;;;;32.67;30.00;;;;;22.22;49.79;101533.39;110244;1264;22157;-48
2022/06/11 05:39:39;;;;;;;;;29.67;26.67;;;;;22.21;49.61;101537.41;110215;1264;18932;-47
2022/06/11 05:42:07;;;;;;;;;27.00;24.00;;;;;22.17;49.42;101533.65;109481;1264;1046024;-49
2022/06/11 05:44:34;;;;;;;;;22.00;22.00;;;;;22.18;49.17;101534.69;110237;1265;19895;-49
2022/06/11 05:47:01;;;;;;;;;22.33;22.00;;;;;22.17;48.98;101531.89;110194;1264;18976;-48
2022/06/11 05:49:28;;;;;;;;;18.00;17.00;;;;;22.19;48.96;101530.02;110265;1264;22185;-48
2022/06/11 05:51:56;;;;;;;;;16.33;14.00;;;;;22.14;48.89;101537.30;110225;1264;19608;-48
2022/06/11 05:54:23;;;;;;;;;15.00;14.33;;;;;22.15;49.00;101539.73;110186;1264;18857;-49
2022/06/11 05:56:50;;;;;;;;;14.00;14.00;;;;;22.20;49.20;101539.19;110250;1264;18892;-48
2022/06/11 05:59:17;;;;;;;;;13.33;13.00;;;;;22.24;49.05;101535.41;110220;1264;22312;-47
2022/06/11 06:01:45;;;;;;;;;13.50;13.50;;;;;22.29;49.05;101537.80;110246;1264;18761;-47
2022/06/11 06:04:12;;;;;;;;;14.00;11.00;;;;;22.33;49.00;101541.60;110239;1264;18796;-48
2022/06/11 06:06:39;;;;;;;;;10.00;10.00;;;;;22.37;49.03;101541.27;110252;1264;19471;-48
2022/06/11 06:09:07;;;;;;;;;10.00;10.00;;;;;22.43;49.16;101540.63;110265;1263;18954;-48
2022/06/11 06:11:34;;;;;;;;;11.00;10.33;;;;;22.48;49.14;101541.76;110250;1264;21042;-46
2022/06/11 06:14:01;;;;;;;;;14.00;10.33;;;;;22.51;48.90;101542.31;110243;1264;19600;-47
2022/06/11 06:16:30;;;;;;;;;11.00;10.50;;;;;22.53;48.83;101544.79;110296;1264;18867;-48
2022/06/11 06:18:57;;;;;;;;;9.50;9.00;;;;;22.57;48.85;101544.23;110231;1264;18801;-47
2022/06/11 06:21:24;;;;;;;;;11.00;11.00;;;;;22.61;48.98;101544.85;110233;1263;19591;-46
2022/06/11 06:23:52;;;;;;;;;12.67;12.67;;;;;22.65;49.06;101548.16;110262;1265;19210;-45
2022/06/11 06:26:19;;;;;;;;;10.00;10.00;;;;;22.70;48.96;101551.58;110238;1265;24189;-46
2022/06/11 06:28:46;;;;;;;;;14.67;13.67;;;;;22.72;48.97;101549.16;110293;1264;19751;-48
2022/06/11 06:31:13;;;;;;;;;18.00;16.33;;;;;22.74;49.05;101551.66;110251;1264;23597;-48
2022/06/11 06:33:41;;;;;;;;;16.33;16.33;;;;;22.77;48.89;101551.09;110194;1265;18847;-47
2022/06/11 06:36:08;;;;;;;;;15.00;14.00;;;;;22.81;48.99;101551.00;110261;1264;19521;-48
2022/06/11 06:38:35;;;;;;;;;14.00;13.67;;;;;22.86;48.86;101547.90;110226;1264;19195;-47
2022/06/11 06:41:03;;;;;;;;;14.00;14.00;;;;;22.91;48.70;101545.23;110132;1264;18903;-48
2022/06/11 06:43:30;;;;;;;;;15.67;14.00;;;;;22.96;48.56;101543.16;110299;1265;21964;-47
2022/06/11 06:45:57;;;;;;;;;15.33;14.67;;;;;23.00;48.32;101544.95;110266;1264;18852;-49
2022/06/11 06:48:25;;;;;;;;;12.33;12.33;;;;;23.01;48.19;101544.58;110198;1264;18855;-47
2022/06/11 06:50:52;;;;;;;;;11.33;11.33;;;;;23.09;48.44;101546.02;110230;1264;19442;-46
2022/06/11 06:53:20;;;;;;;;;13.00;13.00;;;;;23.22;48.72;101547.17;110225;1264;18855;-48
2022/06/11 06:55:48;;;;;;;;;14.33;14.33;;;;;23.36;48.98;101546.32;110115;1265;19008;-49
2022/06/11 06:58:16;;;;;;;;;10.00;10.00;;;;;23.39;48.94;101546.18;110161;1264;19622;-47
2022/06/11 07:00:43;;;;;;;;;13.67;12.33;;;;;23.46;49.28;101547.27;110091;1265;22219;-47
2022/06/11 07:03:12;;;;;;;;;12.00;11.00;;;;;23.59;49.13;101544.19;110211;1264;22093;-47
2022/06/11 07:05:39;;;;;;;;;10.00;9.67;;;;;23.65;49.17;101548.66;110126;1265;19647;-48
2022/06/11 07:08:07;;;;;;;;;11.50;11.00;;;;;23.65;48.51;101542.98;110025;1264;18741;-45
2022/06/11 07:10:34;;;;;;;;;13.33;12.00;;;;;23.66;48.33;101544.14;110082;1265;18800;-45
2022/06/11 07:13:01;;;;;;;;;11.00;11.00;;;;;23.76;48.30;101546.91;110191;1265;19754;-47
2022/06/11 07:15:28;;;;;;;;;14.00;11.00;;;;;23.76;47.83;101549.95;110213;1265;22522;-46
2022/06/11 07:17:56;;;;;;;;;11.00;10.00;;;;;23.78;47.61;101551.20;110235;1265;18720;-47
2022/06/11 07:20:23;;;;;;;;;9.50;9.00;;;;;23.86;47.48;101546.34;110274;1264;23007;-47
2022/06/11 07:22:50;;;;;;;;;9.00;9.00;;;;;23.93;47.26;101546.90;110343;1265;18935;-48
2022/06/11 07:25:18;;;;;;;;;10.00;10.00;;;;;23.92;46.81;101549.09;110100;1264;18883;-48
2022/06/11 07:27:49;;;;;;;;;9.00;9.00;;;;;23.89;46.35;101550.27;110160;1264;22927;-49
2022/06/11 07:30:16;;;;;;;;;9.00;9.00;;;;;23.93;45.84;101553.95;110211;1264;18761;-48
2022/06/11 07:32:43;;;;;;;;;9.67;9.00;;;;;24.04;45.88;101554.85;110166;1265;18715;-46
2022/06/11 07:35:12;;;;;;;;;10.33;9.33;;;;;24.10;45.87;101554.52;110184;1264;21874;-47
2022/06/11 07:37:39;;;;;;;;;10.00;9.67;;;;;24.18;45.66;101553.79;110212;1264;18607;-47
2022/06/11 07:40:06;;;;;;;;;7.00;7.00;;;;;24.17;45.60;101546.77;110086;1264;18890;-47
2022/06/11 07:42:34;;;;;;;;;10.00;9.00;;;;;24.16;45.63;101551.39;110135;1264;19666;-48
2022/06/11 07:45:02;;;;;;;;;11.00;11.00;;;;;24.11;45.49;101551.26;110151;1264;18456;-48
2022/06/11 07:50:14;;;;;;;;;36.00;27.50;;;;;24.05;45.30;101554.58;110038;1265;19515;-46
2022/06/11 07:52:41;;;;;;;;;121.00;89.67;;;;;24.11;45.24;101555.74;110144;1265;20189;-47
2022/06/11 07:55:09;;;;;;;;;83.67;58.67;;;;;24.10;45.05;101554.38;110060;1265;18867;-47
2022/06/11 07:57:36;;;;;;;;;47.33;38.00;;;;;24.06;45.20;101555.23;110199;1264;19537;-47
2022/06/11 08:00:03;;;;;;;;;42.00;34.00;;;;;24.06;44.66;101555.94;110161;1265;18688;-47
2022/06/11 08:02:31;;;;;;;;;33.33;28.33;;;;;24.08;44.65;101551.55;110160;1264;18838;-48
2022/06/11 08:04:58;;;;;;;;;31.33;28.00;;;;;24.08;44.71;101546.18;110100;1266;19370;-46
2022/06/11 08:07:27;;;;;;;;;31.33;24.33;;;;;24.11;44.37;101547.70;110216;1264;20132;-48
2022/06/11 08:09:57;;;;;;;;;29.00;27.00;;;;;24.12;44.69;101548.23;110190;1264;24408;-45
2022/06/11 08:12:25;;;;;;;;;14.67;14.33;;;;;24.10;44.80;101541.73;110276;1264;23078;-43
2022/06/11 08:14:56;;;;;;;;;17.00;15.67;;;;;24.17;44.77;101546.26;110201;1265;22875;-49
2022/06/11 08:17:23;;;;;;;;;14.67;14.67;;;;;24.27;45.13;101544.34;110121;1265;18945;-46
2022/06/11 08:19:51;;;;;;;;;14.00;13.00;;;;;24.26;45.51;101548.98;110277;1264;19583;-46
2022/06/11 08:22:18;;;;;;;;;12.00;11.00;;;;;24.29;45.35;101544.77;110184;1265;18808;-48
2022/06/11 08:24:45;;;;;;;;;12.00;11.00;;;;;24.34;45.35;101548.13;110161;1264;19108;-48
2022/06/11 08:27:13;;;;;;;;;11.00;11.00;;;;;24.41;45.61;101553.33;110175;1265;19450;-49
2022/06/11 08:29:40;;;;;;;;;12.00;11.00;;;;;24.42;45.89;101551.50;110227;1264;18725;-50
2022/06/11 08:32:07;;;;;;;;;10.33;10.00;;;;;24.46;45.79;101549.36;110192;1264;18748;-49
2022/06/11 08:34:35;;;;;;;;;22.00;19.33;;;;;24.53;45.62;101546.22;110246;1264;23366;-47
2022/06/11 08:37:02;;;;;;;;;18.67;16.67;;;;;24.50;46.01;101544.36;110270;1265;18710;-49
2022/06/11 08:39:29;;;;;;;;;15.00;14.00;;;;;24.51;46.11;101552.60;110237;1265;20381;-49
2022/06/11 08:41:57;;;;;;;;;12.00;11.33;;;;;24.43;46.40;101545.16;110266;1264;19761;-49
2022/06/11 08:44:24;;;;;;;;;14.00;12.67;;;;;24.42;46.39;101541.94;110264;1265;18791;-49
2022/06/11 08:46:51;;;;;;;;;11.67;11.67;;;;;24.36;46.11;101549.69;110296;1264;22068;-49
2022/06/11 08:49:19;;;;;;;;;10.67;10.67;;;;;24.22;46.20;101545.23;110240;1264;19754;-50
2022/06/11 08:51:46;;;;;;;;;12.67;11.33;;;;;24.18;46.28;101550.60;110226;1264;18831;-49
2022/06/11 08:54:13;;;;;;;;;11.00;10.00;;;;;24.17;46.17;101546.59;110215;1264;18917;-48
2022/06/11 08:56:40;;;;;;;;;10.33;10.00;;;;;24.17;45.57;101549.88;110290;1264;22687;-49
2022/06/11 08:59:08;;;;;;;;;10.00;10.00;;;;;24.16;45.42;101550.89;110301;1264;18849;-49
2022/06/11 09:01:35;;;;;;;;;11.00;10.00;;;;;24.16;45.34;101543.80;110287;1264;18787;-48
2022/06/11 09:04:02;;;;;;;;;8.00;8.00;;;;;24.11;45.71;101544.86;110251;1264;19504;-48
2022/06/11 09:06:30;;;;;;;;;10.00;8.33;;;;;24.07;45.68;101545.17;110230;1265;22552;-47
2022/06/11 09:08:57;;;;;;;;;10.33;8.00;;;;;24.04;45.57;101545.92;110300;1264;21823;-49
2022/06/11 09:11:24;;;;;;;;;11.00;10.50;;;;;24.02;45.44;101539.40;110302;1264;19516;-50
2022/06/11 09:13:52;;;;;;;;;9.67;9.67;;;;;24.15;45.25;101539.07;110307;1264;19119;-48
2022/06/11 09:16:19;;;;;;;;;9.00;8.00;;;;;24.18;45.01;101538.55;110290;1265;19121;-48
2022/06/11 09:18:47;;;;;;;;;11.00;10.00;;;;;24.22;45.22;101534.83;110238;1264;19405;-47
2022/06/11 09:21:14;;;;;;;;;8.33;8.33;;;;;24.20;45.08;101525.52;110145;1264;22261;-48
2022/06/11 09:23:41;;;;;;;;;9.33;8.00;;;;;24.27;45.02;101525.76;110264;1264;18810;-49
2022/06/11 09:26:08;;;;;;;;;13.00;11.50;;;;;24.34;45.06;101522.52;110284;1264;19779;-49
2022/06/11 09:28:36;;;;;;;;;14.67;14.33;;;;;24.37;44.93;101517.77;110322;1264;18797;-49
2022/06/11 09:31:03;;;;;;;;;19.33;16.33;;;;;24.27;45.11;101515.45;110248;1264;20337;-48
2022/06/11 09:33:31;;;;;;;;;17.00;14.00;;;;;24.23;45.24;101515.15;110297;1264;19534;-50
2022/06/11 09:35:58;;;;;;;;;15.67;15.00;;;;;24.31;45.15;101510.60;110266;1263;22350;-47
2022/06/11 09:38:25;;;;;;;;;14.67;14.67;;;;;24.26;45.35;101518.25;110313;1264;19126;-48
2022/06/11 09:40:53;;;;;;;;;12.00;11.00;;;;;24.19;45.51;101517.14;110329;1264;19565;-48
2022/06/11 09:43:20;;;;;;;;;14.00;14.00;;;;;24.12;45.48;101507.48;110297;1264;18811;-48
2022/06/11 09:45:47;;;;;;;;;11.67;11.67;;;;;24.13;45.48;101504.52;110281;1264;20227;-48
2022/06/11 09:48:15;;;;;;;;;10.33;10.33;;;;;24.21;45.43;101501.59;110261;1264;19708;-49
2022/06/11 09:50:42;;;;;;;;;11.33;11.00;;;;;24.15;45.60;101500.84;110299;1264;18847;-49
2022/06/11 09:53:09;;;;;;;;;12.00;12.00;;;;;24.18;45.42;101501.15;110270;1265;18884;-49
2022/06/11 09:55:37;;;;;;;;;12.00;12.00;;;;;24.11;45.50;101498.88;110315;1264;19498;-48
2022/06/11 09:58:05;;;;;;;;;12.00;11.67;;;;;24.09;45.55;101496.35;110265;1265;18842;-48
2022/06/11 10:00:32;;;;;;;;;15.00;15.00;;;;;24.10;45.35;101495.61;110281;1264;18830;-45
2022/06/11 10:03:01;;;;;;;;;16.00;16.00;;;;;24.13;45.53;101493.63;110261;1264;19519;-49
2022/06/11 10:05:28;;;;;;;;;11.67;11.33;;;;;24.25;45.32;101491.05;110242;1264;18767;-49
2022/06/11 10:07:55;;;;;;;;;13.67;11.33;;;;;24.21;45.27;101491.48;110277;1264;20562;-51
2022/06/11 10:10:23;;;;;;;;;15.00;14.00;;;;;24.17;45.33;101494.23;110308;1265;19546;-49
2022/06/11 10:12:50;;;;;;;;;12.00;11.33;;;;;24.20;45.05;101493.82;110283;1264;18719;-49
2022/06/11 10:15:17;;;;;;;;;12.00;12.00;;;;;24.22;45.12;101490.62;110282;1265;18809;-48
2022/06/11 10:17:45;;;;;;;;;11.00;11.00;;;;;24.28;44.78;101493.46;110283;1264;20700;-48
2022/06/11 10:20:12;;;;;;;;;15.67;15.00;;;;;24.28;44.90;101490.69;110292;1264;18850;-48
2022/06/11 10:22:39;;;;;;;;;13.33;12.67;;;;;24.31;44.81;101489.43;110317;1264;20214;-49
2022/06/11 10:25:06;;;;;;;;;11.33;11.00;;;;;24.29;44.49;101487.08;110274;1264;19591;-49
2022/06/11 10:27:34;;;;;;;;;12.00;12.00;;;;;24.35;44.40;101487.84;110296;1264;18789;-49
2022/06/11 10:30:02;;;;;;;;;12.67;12.67;;;;;24.32;44.56;101484.14;110291;1265;18830;-49
2022/06/11 10:32:29;;;;;;;;;13.67;13.67;;;;;24.23;44.93;101480.14;110305;1264;19472;-49
2022/06/11 10:34:56;;;;;;;;;11.00;11.00;;;;;24.32;44.63;101479.33;110303;1264;18794;-51
2022/06/11 10:37:23;;;;;;;;;12.00;11.33;;;;;24.31;44.84;101484.16;110305;1264;19080;-49
2022/06/11 10:39:51;;;;;;;;;14.00;11.50;;;;;24.25;45.13;101483.23;110261;1265;19726;-48
2022/06/11 10:42:18;;;;;;;;;12.00;12.00;;;;;24.15;45.33;101481.46;110295;1264;19130;-49
2022/06/11 10:44:46;;;;;;;;;12.00;12.00;;;;;24.18;45.39;101474.46;110288;1264;18945;-49
2022/06/11 10:47:14;;;;;;;;;10.33;10.00;;;;;24.40;45.14;101477.09;110229;1265;19820;-48
2022/06/11 10:49:41;;;;;;;;;11.67;11.67;;;;;24.32;45.18;101477.83;110308;1264;22832;-48
2022/06/11 10:52:08;;;;;;;;;12.00;12.00;;;;;24.31;45.05;101475.88;110216;1264;20100;-48
2022/06/11 10:54:35;;;;;;;;;11.33;11.33;;;;;24.19;45.39;101476.36;110308;1264;19576;-48
2022/06/11 10:57:03;;;;;;;;;10.33;10.33;;;;;24.10;45.65;101474.91;110304;1265;22119;-48
2022/06/11 10:59:30;;;;;;;;;12.00;12.00;;;;;24.04;45.86;101471.69;110296;1264;19014;-47
2022/06/11 11:01:57;;;;;;;;;12.00;11.00;;;;;24.03;45.71;101470.62;110316;1264;20018;-51
2022/06/11 11:04:25;;;;;;;;;12.00;11.33;;;;;24.01;45.69;101468.48;110316;1264;18900;-48